sensor_id;sensor_type;location;lat;lon;timestamp;P1;durP1;ratioP1;P2;durP2;ratioP2
6288;SDS011;3177;49.880;8.836;2022-11-18T00:01:44;15.27;;;9.10;;
6288;SDS011;3177;49.880;8.836;2022-11-18T00:04:12;13.43;;;8.73;;
6288;SDS011;3177;49.880;8.836;2022-11-18T00:06:39;11.83;;;7.37;;
6288;SDS011;3177;49.880;8.836;2022-11-18T00:09:07;12.60;;;7.87;;
6288;SDS011;3177;49.880;8.836;2022-11-18T00:11:34;8.63;;;6.80;;
6288;SDS011;3177;49.880;8.836;2022-11-18T00:14:19;15.13;;;6.63;;
6288;SDS011;3177;49.880;8.836;2022-11-18T00:16:48;7.43;;;5.67;;
6288;SDS011;3177;49.880;8.836;2022-11-18T00:19:17;7.67;;;5.33;;
6288;SDS011;3177;49.880;8.836;2022-11-18T00:21:44;7.67;;;5.60;;
6288;SDS011;3177;49.880;8.836;2022-11-18T00:24:11;6.60;;;5.67;;
6288;SDS011;3177;49.880;8.836;2022-11-18T00:26:38;7.43;;;4.90;;
6288;SDS011;3177;49.880;8.836;2022-11-18T00:29:07;7.70;;;5.73;;
6288;SDS011;3177;49.880;8.836;2022-11-18T00:31:34;5.17;;;4.67;;
6288;SDS011;3177;49.880;8.836;2022-11-18T00:34:01;6.63;;;5.50;;
6288;SDS011;3177;49.880;8.836;2022-11-18T00:36:29;8.93;;;5.60;;
6288;SDS011;3177;49.880;8.836;2022-11-18T00:38:57;9.00;;;5.50;;
6288;SDS011;3177;49.880;8.836;2022-11-18T00:41:24;7.57;;;5.87;;
6288;SDS011;3177;49.880;8.836;2022-11-18T00:44:12;6.23;;;5.40;;
6288;SDS011;3177;49.880;8.836;2022-11-18T00:46:38;11.97;;;6.70;;
6288;SDS011;3177;49.880;8.836;2022-11-18T00:49:05;8.50;;;6.30;;
6288;SDS011;3177;49.880;8.836;2022-11-18T00:51:34;11.23;;;6.53;;
6288;SDS011;3177;49.880;8.836;2022-11-18T00:54:01;8.67;;;6.10;;
6288;SDS011;3177;49.880;8.836;2022-11-18T00:56:29;10.30;;;6.97;;
6288;SDS011;3177;49.880;8.836;2022-11-18T00:58:56;13.37;;;7.60;;
6288;SDS011;3177;49.880;8.836;2022-11-18T01:01:23;11.57;;;7.90;;
6288;SDS011;3177;49.880;8.836;2022-11-18T01:03:50;11.90;;;8.27;;
6288;SDS011;3177;49.880;8.836;2022-11-18T01:06:17;13.50;;;8.20;;
6288;SDS011;3177;49.880;8.836;2022-11-18T01:08:45;13.10;;;8.57;;
6288;SDS011;3177;49.880;8.836;2022-11-18T01:11:13;12.03;;;8.30;;
6288;SDS011;3177;49.880;8.836;2022-11-18T01:13:58;12.50;;;7.70;;
6288;SDS011;3177;49.880;8.836;2022-11-18T01:16:25;11.70;;;8.00;;
6288;SDS011;3177;49.880;8.836;2022-11-18T01:18:53;14.63;;;8.03;;
6288;SDS011;3177;49.880;8.836;2022-11-18T01:21:20;13.73;;;8.40;;
6288;SDS011;3177;49.880;8.836;2022-11-18T01:23:48;11.37;;;8.37;;
6288;SDS011;3177;49.880;8.836;2022-11-18T01:26:16;11.80;;;7.60;;
6288;SDS011;3177;49.880;8.836;2022-11-18T01:28:43;14.57;;;7.90;;
6288;SDS011;3177;49.880;8.836;2022-11-18T01:31:11;12.40;;;7.70;;
6288;SDS011;3177;49.880;8.836;2022-11-18T01:33:39;10.17;;;7.57;;
6288;SDS011;3177;49.880;8.836;2022-11-18T01:36:13;13.70;;;8.27;;
6288;SDS011;3177;49.880;8.836;2022-11-18T01:38:40;11.70;;;7.50;;
6288;SDS011;3177;49.880;8.836;2022-11-18T01:41:08;9.73;;;7.73;;
6288;SDS011;3177;49.880;8.836;2022-11-18T01:43:46;14.50;;;8.30;;
6288;SDS011;3177;49.880;8.836;2022-11-18T01:46:13;11.77;;;8.47;;
6288;SDS011;3177;49.880;8.836;2022-11-18T01:48:41;16.73;;;8.97;;
6288;SDS011;3177;49.880;8.836;2022-11-18T01:51:10;13.00;;;9.20;;
6288;SDS011;3177;49.880;8.836;2022-11-18T01:53:39;17.10;;;9.23;;
6288;SDS011;3177;49.880;8.836;2022-11-18T01:56:10;14.77;;;9.73;;
6288;SDS011;3177;49.880;8.836;2022-11-18T01:58:38;16.00;;;9.23;;
6288;SDS011;3177;49.880;8.836;2022-11-18T02:01:07;15.63;;;10.00;;
6288;SDS011;3177;49.880;8.836;2022-11-18T02:03:34;17.73;;;10.70;;
6288;SDS011;3177;49.880;8.836;2022-11-18T02:06:02;19.43;;;10.30;;
6288;SDS011;3177;49.880;8.836;2022-11-18T02:08:30;13.90;;;9.77;;
6288;SDS011;3177;49.880;8.836;2022-11-18T02:11:01;18.10;;;10.17;;
6288;SDS011;3177;49.880;8.836;2022-11-18T02:13:29;18.00;;;9.90;;
6288;SDS011;3177;49.880;8.836;2022-11-18T02:15:59;12.00;;;8.83;;
6288;SDS011;3177;49.880;8.836;2022-11-18T02:18:34;11.03;;;9.43;;
6288;SDS011;3177;49.880;8.836;2022-11-18T02:21:07;16.03;;;9.77;;
6288;SDS011;3177;49.880;8.836;2022-11-18T02:23:51;15.40;;;9.87;;
6288;SDS011;3177;49.880;8.836;2022-11-18T02:26:29;12.93;;;9.80;;
6288;SDS011;3177;49.880;8.836;2022-11-18T02:29:02;13.87;;;9.50;;
6288;SDS011;3177;49.880;8.836;2022-11-18T02:31:31;15.03;;;10.03;;
6288;SDS011;3177;49.880;8.836;2022-11-18T02:34:01;17.27;;;10.80;;
6288;SDS011;3177;49.880;8.836;2022-11-18T02:36:30;18.63;;;11.40;;
6288;SDS011;3177;49.880;8.836;2022-11-18T02:39:01;18.97;;;10.43;;
6288;SDS011;3177;49.880;8.836;2022-11-18T02:41:30;19.70;;;9.87;;
6288;SDS011;3177;49.880;8.836;2022-11-18T02:44:01;13.63;;;9.97;;
6288;SDS011;3177;49.880;8.836;2022-11-18T02:46:31;17.63;;;10.80;;
6288;SDS011;3177;49.880;8.836;2022-11-18T02:48:59;15.10;;;9.50;;
6288;SDS011;3177;49.880;8.836;2022-11-18T02:51:28;17.93;;;9.83;;
6288;SDS011;3177;49.880;8.836;2022-11-18T02:53:56;14.57;;;9.93;;
6288;SDS011;3177;49.880;8.836;2022-11-18T02:56:25;14.03;;;10.07;;
6288;SDS011;3177;49.880;8.836;2022-11-18T02:58:53;13.50;;;9.53;;
6288;SDS011;3177;49.880;8.836;2022-11-18T03:01:21;16.30;;;9.23;;
6288;SDS011;3177;49.880;8.836;2022-11-18T03:03:52;13.17;;;8.93;;
6288;SDS011;3177;49.880;8.836;2022-11-18T03:06:22;10.83;;;9.00;;
6288;SDS011;3177;49.880;8.836;2022-11-18T03:08:54;15.93;;;9.63;;
6288;SDS011;3177;49.880;8.836;2022-11-18T03:11:24;14.13;;;9.13;;
6288;SDS011;3177;49.880;8.836;2022-11-18T03:13:57;16.87;;;10.40;;
6288;SDS011;3177;49.880;8.836;2022-11-18T03:16:28;14.40;;;10.13;;
6288;SDS011;3177;49.880;8.836;2022-11-18T03:19:01;13.67;;;9.77;;
6288;SDS011;3177;49.880;8.836;2022-11-18T03:21:32;14.87;;;10.70;;
6288;SDS011;3177;49.880;8.836;2022-11-18T03:24:02;16.37;;;10.33;;
6288;SDS011;3177;49.880;8.836;2022-11-18T03:26:33;17.43;;;10.30;;
6288;SDS011;3177;49.880;8.836;2022-11-18T03:29:03;14.70;;;10.67;;
6288;SDS011;3177;49.880;8.836;2022-11-18T03:31:32;15.53;;;10.40;;
6288;SDS011;3177;49.880;8.836;2022-11-18T03:34:03;15.50;;;10.40;;
6288;SDS011;3177;49.880;8.836;2022-11-18T03:36:32;17.67;;;10.10;;
6288;SDS011;3177;49.880;8.836;2022-11-18T03:39:02;15.50;;;9.53;;
6288;SDS011;3177;49.880;8.836;2022-11-18T03:41:31;18.70;;;10.20;;
6288;SDS011;3177;49.880;8.836;2022-11-18T03:44:03;17.33;;;10.20;;
6288;SDS011;3177;49.880;8.836;2022-11-18T03:46:33;14.63;;;9.97;;
6288;SDS011;3177;49.880;8.836;2022-11-18T03:49:02;16.23;;;9.10;;
6288;SDS011;3177;49.880;8.836;2022-11-18T03:51:31;15.50;;;8.67;;
6288;SDS011;3177;49.880;8.836;2022-11-18T03:54:00;14.23;;;8.80;;
6288;SDS011;3177;49.880;8.836;2022-11-18T03:56:29;10.43;;;8.00;;
6288;SDS011;3177;49.880;8.836;2022-11-18T03:59:00;13.83;;;8.23;;
6288;SDS011;3177;49.880;8.836;2022-11-18T04:01:29;14.70;;;9.07;;
6288;SDS011;3177;49.880;8.836;2022-11-18T04:03:57;11.60;;;8.70;;
6288;SDS011;3177;49.880;8.836;2022-11-18T04:06:28;16.23;;;9.33;;
6288;SDS011;3177;49.880;8.836;2022-11-18T04:08:58;12.77;;;9.17;;
6288;SDS011;3177;49.880;8.836;2022-11-18T04:11:27;16.93;;;9.90;;
6288;SDS011;3177;49.880;8.836;2022-11-18T04:14:14;15.10;;;9.97;;
6288;SDS011;3177;49.880;8.836;2022-11-18T04:16:43;18.73;;;11.20;;
6288;SDS011;3177;49.880;8.836;2022-11-18T04:19:10;13.33;;;9.80;;
6288;SDS011;3177;49.880;8.836;2022-11-18T04:21:38;18.37;;;10.30;;
6288;SDS011;3177;49.880;8.836;2022-11-18T04:24:06;17.43;;;11.00;;
6288;SDS011;3177;49.880;8.836;2022-11-18T04:26:33;17.33;;;11.07;;
6288;SDS011;3177;49.880;8.836;2022-11-18T04:29:00;19.50;;;11.10;;
6288;SDS011;3177;49.880;8.836;2022-11-18T04:31:27;17.23;;;11.57;;
6288;SDS011;3177;49.880;8.836;2022-11-18T04:33:54;17.67;;;11.07;;
6288;SDS011;3177;49.880;8.836;2022-11-18T04:36:21;17.57;;;11.43;;
6288;SDS011;3177;49.880;8.836;2022-11-18T04:38:50;20.17;;;11.77;;
6288;SDS011;3177;49.880;8.836;2022-11-18T04:41:17;14.67;;;10.37;;
6288;SDS011;3177;49.880;8.836;2022-11-18T04:43:44;24.00;;;11.67;;
6288;SDS011;3177;49.880;8.836;2022-11-18T04:46:11;18.03;;;10.40;;
6288;SDS011;3177;49.880;8.836;2022-11-18T04:48:38;15.40;;;10.33;;
6288;SDS011;3177;49.880;8.836;2022-11-18T04:51:05;18.47;;;10.03;;
6288;SDS011;3177;49.880;8.836;2022-11-18T04:53:32;20.27;;;11.10;;
6288;SDS011;3177;49.880;8.836;2022-11-18T04:56:04;15.70;;;9.93;;
6288;SDS011;3177;49.880;8.836;2022-11-18T04:58:31;16.30;;;10.43;;
6288;SDS011;3177;49.880;8.836;2022-11-18T05:00:58;20.63;;;11.33;;
6288;SDS011;3177;49.880;8.836;2022-11-18T05:03:26;13.93;;;9.87;;
6288;SDS011;3177;49.880;8.836;2022-11-18T05:05:53;16.87;;;10.90;;
6288;SDS011;3177;49.880;8.836;2022-11-18T05:08:20;19.73;;;10.53;;
6288;SDS011;3177;49.880;8.836;2022-11-18T05:10:47;17.17;;;11.33;;
6288;SDS011;3177;49.880;8.836;2022-11-18T05:13:15;17.87;;;10.90;;
6288;SDS011;3177;49.880;8.836;2022-11-18T05:15:41;18.40;;;11.27;;
6288;SDS011;3177;49.880;8.836;2022-11-18T05:18:09;21.67;;;12.03;;
6288;SDS011;3177;49.880;8.836;2022-11-18T05:20:36;22.67;;;12.33;;
6288;SDS011;3177;49.880;8.836;2022-11-18T05:23:03;20.33;;;11.80;;
6288;SDS011;3177;49.880;8.836;2022-11-18T05:25:30;21.47;;;13.70;;
6288;SDS011;3177;49.880;8.836;2022-11-18T05:27:57;19.77;;;13.00;;
6288;SDS011;3177;49.880;8.836;2022-11-18T05:30:26;18.13;;;12.00;;
6288;SDS011;3177;49.880;8.836;2022-11-18T05:32:53;24.87;;;14.73;;
6288;SDS011;3177;49.880;8.836;2022-11-18T05:35:20;21.93;;;13.20;;
6288;SDS011;3177;49.880;8.836;2022-11-18T05:37:47;23.43;;;14.57;;
6288;SDS011;3177;49.880;8.836;2022-11-18T05:40:15;22.50;;;13.90;;
6288;SDS011;3177;49.880;8.836;2022-11-18T05:42:42;23.70;;;15.00;;
6288;SDS011;3177;49.880;8.836;2022-11-18T05:45:28;22.40;;;13.83;;
6288;SDS011;3177;49.880;8.836;2022-11-18T05:47:55;22.37;;;13.67;;
6288;SDS011;3177;49.880;8.836;2022-11-18T05:50:27;21.87;;;13.50;;
6288;SDS011;3177;49.880;8.836;2022-11-18T05:52:54;26.67;;;14.43;;
6288;SDS011;3177;49.880;8.836;2022-11-18T05:55:21;23.50;;;15.07;;
6288;SDS011;3177;49.880;8.836;2022-11-18T05:57:49;26.50;;;14.83;;
6288;SDS011;3177;49.880;8.836;2022-11-18T06:00:17;26.63;;;16.80;;
6288;SDS011;3177;49.880;8.836;2022-11-18T06:02:45;30.90;;;14.97;;
6288;SDS011;3177;49.880;8.836;2022-11-18T06:05:15;24.93;;;15.17;;
6288;SDS011;3177;49.880;8.836;2022-11-18T06:07:43;24.60;;;13.90;;
6288;SDS011;3177;49.880;8.836;2022-11-18T06:10:11;26.23;;;15.07;;
6288;SDS011;3177;49.880;8.836;2022-11-18T06:12:40;30.83;;;15.67;;
6288;SDS011;3177;49.880;8.836;2022-11-18T06:15:10;24.57;;;14.83;;
6288;SDS011;3177;49.880;8.836;2022-11-18T06:17:39;22.07;;;14.33;;
6288;SDS011;3177;49.880;8.836;2022-11-18T06:20:09;26.50;;;15.20;;
6288;SDS011;3177;49.880;8.836;2022-11-18T06:22:37;30.37;;;14.80;;
6288;SDS011;3177;49.880;8.836;2022-11-18T06:25:04;21.73;;;14.33;;
6288;SDS011;3177;49.880;8.836;2022-11-18T06:27:31;23.70;;;14.87;;
6288;SDS011;3177;49.880;8.836;2022-11-18T06:29:59;28.17;;;15.13;;
6288;SDS011;3177;49.880;8.836;2022-11-18T06:32:26;24.10;;;14.80;;
6288;SDS011;3177;49.880;8.836;2022-11-18T06:34:54;25.77;;;15.93;;
6288;SDS011;3177;49.880;8.836;2022-11-18T06:37:22;24.90;;;15.17;;
6288;SDS011;3177;49.880;8.836;2022-11-18T06:39:49;24.80;;;15.37;;
6288;SDS011;3177;49.880;8.836;2022-11-18T06:42:16;27.57;;;15.53;;
6288;SDS011;3177;49.880;8.836;2022-11-18T06:44:57;28.07;;;15.70;;
6288;SDS011;3177;49.880;8.836;2022-11-18T06:47:24;27.63;;;15.40;;
6288;SDS011;3177;49.880;8.836;2022-11-18T06:49:50;27.63;;;15.23;;
6288;SDS011;3177;49.880;8.836;2022-11-18T06:52:17;22.30;;;14.83;;
6288;SDS011;3177;49.880;8.836;2022-11-18T06:54:46;25.43;;;16.23;;
6288;SDS011;3177;49.880;8.836;2022-11-18T06:57:13;26.70;;;16.27;;
6288;SDS011;3177;49.880;8.836;2022-11-18T06:59:40;27.40;;;16.03;;
6288;SDS011;3177;49.880;8.836;2022-11-18T07:02:07;28.23;;;14.70;;
6288;SDS011;3177;49.880;8.836;2022-11-18T07:04:35;38.83;;;24.13;;
6288;SDS011;3177;49.880;8.836;2022-11-18T07:07:03;38.07;;;16.53;;
6288;SDS011;3177;49.880;8.836;2022-11-18T07:09:30;33.83;;;16.80;;
6288;SDS011;3177;49.880;8.836;2022-11-18T07:11:59;27.67;;;16.33;;
6288;SDS011;3177;49.880;8.836;2022-11-18T07:14:26;29.83;;;16.63;;
6288;SDS011;3177;49.880;8.836;2022-11-18T07:16:53;36.47;;;17.53;;
6288;SDS011;3177;49.880;8.836;2022-11-18T07:19:20;29.43;;;15.63;;
6288;SDS011;3177;49.880;8.836;2022-11-18T07:21:47;29.00;;;15.60;;
6288;SDS011;3177;49.880;8.836;2022-11-18T07:24:14;17.10;;;9.77;;
6288;SDS011;3177;49.880;8.836;2022-11-18T07:26:42;15.93;;;9.07;;
6288;SDS011;3177;49.880;8.836;2022-11-18T07:29:10;14.87;;;8.40;;
6288;SDS011;3177;49.880;8.836;2022-11-18T07:31:37;14.83;;;8.00;;
6288;SDS011;3177;49.880;8.836;2022-11-18T07:34:05;12.13;;;7.30;;
6288;SDS011;3177;49.880;8.836;2022-11-18T07:36:32;12.73;;;6.83;;
6288;SDS011;3177;49.880;8.836;2022-11-18T07:38:59;10.17;;;5.87;;
6288;SDS011;3177;49.880;8.836;2022-11-18T07:41:28;16.73;;;7.73;;
6288;SDS011;3177;49.880;8.836;2022-11-18T07:43:56;9.73;;;6.50;;
6288;SDS011;3177;49.880;8.836;2022-11-18T07:46:25;14.23;;;7.87;;
6288;SDS011;3177;49.880;8.836;2022-11-18T07:48:53;10.83;;;6.97;;
6288;SDS011;3177;49.880;8.836;2022-11-18T07:51:21;13.40;;;7.03;;
6288;SDS011;3177;49.880;8.836;2022-11-18T07:53:48;12.03;;;6.93;;
6288;SDS011;3177;49.880;8.836;2022-11-18T07:56:15;14.27;;;7.77;;
6288;SDS011;3177;49.880;8.836;2022-11-18T07:58:43;14.97;;;6.67;;
6288;SDS011;3177;49.880;8.836;2022-11-18T08:01:11;8.37;;;6.13;;
6288;SDS011;3177;49.880;8.836;2022-11-18T08:03:39;10.47;;;6.30;;
6288;SDS011;3177;49.880;8.836;2022-11-18T08:06:07;9.67;;;5.80;;
6288;SDS011;3177;49.880;8.836;2022-11-18T08:08:35;9.17;;;5.97;;
6288;SDS011;3177;49.880;8.836;2022-11-18T08:11:03;11.50;;;6.43;;
6288;SDS011;3177;49.880;8.836;2022-11-18T08:13:31;12.60;;;6.03;;
6288;SDS011;3177;49.880;8.836;2022-11-18T08:15:58;11.50;;;7.03;;
6288;SDS011;3177;49.880;8.836;2022-11-18T08:18:26;10.83;;;6.73;;
6288;SDS011;3177;49.880;8.836;2022-11-18T08:20:55;8.93;;;5.57;;
6288;SDS011;3177;49.880;8.836;2022-11-18T08:23:22;9.40;;;5.70;;
6288;SDS011;3177;49.880;8.836;2022-11-18T08:25:50;8.17;;;5.37;;
6288;SDS011;3177;49.880;8.836;2022-11-18T08:28:17;7.03;;;5.20;;
6288;SDS011;3177;49.880;8.836;2022-11-18T08:30:44;11.63;;;5.90;;
6288;SDS011;3177;49.880;8.836;2022-11-18T08:33:11;11.83;;;6.13;;
6288;SDS011;3177;49.880;8.836;2022-11-18T08:35:38;7.70;;;5.20;;
6288;SDS011;3177;49.880;8.836;2022-11-18T08:38:06;8.87;;;4.93;;
6288;SDS011;3177;49.880;8.836;2022-11-18T08:40:33;5.23;;;4.57;;
6288;SDS011;3177;49.880;8.836;2022-11-18T08:43:01;7.07;;;5.47;;
6288;SDS011;3177;49.880;8.836;2022-11-18T08:45:28;10.33;;;5.47;;
6288;SDS011;3177;49.880;8.836;2022-11-18T08:47:55;9.80;;;5.30;;
6288;SDS011;3177;49.880;8.836;2022-11-18T08:50:22;5.33;;;4.83;;
6288;SDS011;3177;49.880;8.836;2022-11-18T08:52:49;5.73;;;4.70;;
6288;SDS011;3177;49.880;8.836;2022-11-18T08:55:18;4.77;;;4.33;;
6288;SDS011;3177;49.880;8.836;2022-11-18T08:57:45;5.50;;;4.13;;
6288;SDS011;3177;49.880;8.836;2022-11-18T09:00:14;4.80;;;4.37;;
6288;SDS011;3177;49.880;8.836;2022-11-18T09:02:41;6.47;;;4.33;;
6288;SDS011;3177;49.880;8.836;2022-11-18T09:05:08;6.40;;;4.27;;
6288;SDS011;3177;49.880;8.836;2022-11-18T09:07:35;3.70;;;3.40;;
6288;SDS011;3177;49.880;8.836;2022-11-18T09:10:02;5.00;;;3.80;;
6288;SDS011;3177;49.880;8.836;2022-11-18T09:12:31;5.37;;;4.00;;
6288;SDS011;3177;49.880;8.836;2022-11-18T09:14:58;7.07;;;5.10;;
6288;SDS011;3177;49.880;8.836;2022-11-18T09:17:25;4.87;;;4.37;;
6288;SDS011;3177;49.880;8.836;2022-11-18T09:19:52;5.90;;;3.70;;
6288;SDS011;3177;49.880;8.836;2022-11-18T09:22:19;3.60;;;3.17;;
6288;SDS011;3177;49.880;8.836;2022-11-18T09:24:46;3.90;;;3.50;;
6288;SDS011;3177;49.880;8.836;2022-11-18T09:27:13;4.53;;;3.00;;
6288;SDS011;3177;49.880;8.836;2022-11-18T09:29:42;2.87;;;2.50;;
6288;SDS011;3177;49.880;8.836;2022-11-18T09:32:09;4.83;;;2.73;;
6288;SDS011;3177;49.880;8.836;2022-11-18T09:34:36;3.53;;;3.20;;
6288;SDS011;3177;49.880;8.836;2022-11-18T09:37:03;3.77;;;3.10;;
6288;SDS011;3177;49.880;8.836;2022-11-18T09:39:30;8.30;;;6.90;;
6288;SDS011;3177;49.880;8.836;2022-11-18T09:41:59;5.13;;;3.13;;
6288;SDS011;3177;49.880;8.836;2022-11-18T09:44:34;2.43;;;2.30;;
6288;SDS011;3177;49.880;8.836;2022-11-18T09:47:06;3.67;;;2.63;;
6288;SDS011;3177;49.880;8.836;2022-11-18T09:49:35;2.90;;;2.70;;
6288;SDS011;3177;49.880;8.836;2022-11-18T09:52:03;3.20;;;2.90;;
6288;SDS011;3177;49.880;8.836;2022-11-18T09:54:32;2.80;;;2.60;;
6288;SDS011;3177;49.880;8.836;2022-11-18T09:56:59;2.43;;;2.23;;
6288;SDS011;3177;49.880;8.836;2022-11-18T09:59:28;4.60;;;2.80;;
6288;SDS011;3177;49.880;8.836;2022-11-18T10:01:57;4.40;;;2.10;;
6288;SDS011;3177;49.880;8.836;2022-11-18T10:04:29;2.27;;;2.13;;
6288;SDS011;3177;49.880;8.836;2022-11-18T10:06:56;2.60;;;2.33;;
6288;SDS011;3177;49.880;8.836;2022-11-18T10:09:25;3.00;;;2.57;;
6288;SDS011;3177;49.880;8.836;2022-11-18T10:11:58;2.70;;;2.50;;
6288;SDS011;3177;49.880;8.836;2022-11-18T10:14:32;2.80;;;2.60;;
6288;SDS011;3177;49.880;8.836;2022-11-18T10:17:06;5.10;;;3.80;;
6288;SDS011;3177;49.880;8.836;2022-11-18T10:19:38;9.50;;;3.87;;
6288;SDS011;3177;49.880;8.836;2022-11-18T10:22:11;3.70;;;3.40;;
6288;SDS011;3177;49.880;8.836;2022-11-18T10:24:41;3.90;;;3.60;;
6288;SDS011;3177;49.880;8.836;2022-11-18T10:27:09;4.63;;;3.80;;
6288;SDS011;3177;49.880;8.836;2022-11-18T10:29:37;5.17;;;4.00;;
6288;SDS011;3177;49.880;8.836;2022-11-18T10:32:05;5.00;;;4.33;;
6288;SDS011;3177;49.880;8.836;2022-11-18T10:34:33;4.30;;;3.90;;
6288;SDS011;3177;49.880;8.836;2022-11-18T10:37:03;4.43;;;4.03;;
6288;SDS011;3177;49.880;8.836;2022-11-18T10:39:31;4.77;;;4.10;;
6288;SDS011;3177;49.880;8.836;2022-11-18T10:41:59;5.10;;;4.60;;
6288;SDS011;3177;49.880;8.836;2022-11-18T10:44:34;4.97;;;3.80;;
6288;SDS011;3177;49.880;8.836;2022-11-18T10:47:13;5.80;;;4.43;;
6288;SDS011;3177;49.880;8.836;2022-11-18T10:49:40;6.07;;;4.57;;
6288;SDS011;3177;49.880;8.836;2022-11-18T10:52:09;5.60;;;3.90;;
6288;SDS011;3177;49.880;8.836;2022-11-18T10:54:37;11.17;;;6.97;;
6288;SDS011;3177;49.880;8.836;2022-11-18T10:57:04;8.23;;;6.13;;
6288;SDS011;3177;49.880;8.836;2022-11-18T10:59:33;9.30;;;6.13;;
6288;SDS011;3177;49.880;8.836;2022-11-18T11:02:02;5.03;;;4.47;;
6288;SDS011;3177;49.880;8.836;2022-11-18T11:04:30;7.00;;;5.80;;
6288;SDS011;3177;49.880;8.836;2022-11-18T11:06:57;5.43;;;4.93;;
6288;SDS011;3177;49.880;8.836;2022-11-18T11:09:26;5.10;;;4.60;;
6288;SDS011;3177;49.880;8.836;2022-11-18T11:11:55;5.17;;;4.70;;
6288;SDS011;3177;49.880;8.836;2022-11-18T11:14:22;5.10;;;4.20;;
6288;SDS011;3177;49.880;8.836;2022-11-18T11:17:03;5.07;;;4.30;;
6288;SDS011;3177;49.880;8.836;2022-11-18T11:19:34;4.60;;;4.20;;
6288;SDS011;3177;49.880;8.836;2022-11-18T11:22:06;4.80;;;4.40;;
6288;SDS011;3177;49.880;8.836;2022-11-18T11:24:35;4.57;;;4.17;;
6288;SDS011;3177;49.880;8.836;2022-11-18T11:27:04;4.53;;;4.13;;
6288;SDS011;3177;49.880;8.836;2022-11-18T11:29:35;4.63;;;4.23;;
6288;SDS011;3177;49.880;8.836;2022-11-18T11:32:05;4.67;;;4.17;;
6288;SDS011;3177;49.880;8.836;2022-11-18T11:34:37;7.60;;;4.30;;
6288;SDS011;3177;49.880;8.836;2022-11-18T11:37:08;5.20;;;4.70;;
6288;SDS011;3177;49.880;8.836;2022-11-18T11:39:45;5.17;;;4.50;;
6288;SDS011;3177;49.880;8.836;2022-11-18T11:42:19;7.13;;;5.00;;
6288;SDS011;3177;49.880;8.836;2022-11-18T11:44:52;8.07;;;5.00;;
6288;SDS011;3177;49.880;8.836;2022-11-18T11:47:23;4.50;;;4.10;;
6288;SDS011;3177;49.880;8.836;2022-11-18T11:50:11;4.63;;;4.10;;
6288;SDS011;3177;49.880;8.836;2022-11-18T11:52:41;4.90;;;4.17;;
6288;SDS011;3177;49.880;8.836;2022-11-18T11:55:17;6.73;;;4.87;;
6288;SDS011;3177;49.880;8.836;2022-11-18T11:57:53;5.17;;;4.77;;
6288;SDS011;3177;49.880;8.836;2022-11-18T12:00:26;5.47;;;4.07;;
6288;SDS011;3177;49.880;8.836;2022-11-18T12:02:59;6.10;;;4.60;;
6288;SDS011;3177;49.880;8.836;2022-11-18T12:05:29;5.30;;;4.20;;
6288;SDS011;3177;49.880;8.836;2022-11-18T12:07:59;4.40;;;4.00;;
6288;SDS011;3177;49.880;8.836;2022-11-18T12:10:29;4.70;;;4.23;;
6288;SDS011;3177;49.880;8.836;2022-11-18T12:13:08;10.33;;;4.43;;
6288;SDS011;3177;49.880;8.836;2022-11-18T12:15:40;4.60;;;4.20;;
6288;SDS011;3177;49.880;8.836;2022-11-18T12:18:10;7.13;;;4.00;;
6288;SDS011;3177;49.880;8.836;2022-11-18T12:20:40;4.63;;;4.10;;
6288;SDS011;3177;49.880;8.836;2022-11-18T12:23:12;5.90;;;4.47;;
6288;SDS011;3177;49.880;8.836;2022-11-18T12:25:48;5.93;;;5.13;;
6288;SDS011;3177;49.880;8.836;2022-11-18T12:28:21;4.87;;;4.27;;
6288;SDS011;3177;49.880;8.836;2022-11-18T12:30:48;4.37;;;3.70;;
6288;SDS011;3177;49.880;8.836;2022-11-18T12:33:16;4.17;;;3.77;;
6288;SDS011;3177;49.880;8.836;2022-11-18T12:35:45;3.93;;;3.50;;
6288;SDS011;3177;49.880;8.836;2022-11-18T12:38:26;4.30;;;3.67;;
6288;SDS011;3177;49.880;8.836;2022-11-18T12:40:54;3.70;;;3.40;;
6288;SDS011;3177;49.880;8.836;2022-11-18T12:48:53;5.10;;;3.73;;
6288;SDS011;3177;49.880;8.836;2022-11-18T12:54:23;5.87;;;4.03;;
6288;SDS011;3177;49.880;8.836;2022-11-18T12:56:52;6.80;;;3.80;;
6288;SDS011;3177;49.880;8.836;2022-11-18T12:59:26;6.90;;;4.07;;
6288;SDS011;3177;49.880;8.836;2022-11-18T13:02:03;6.20;;;4.13;;
6288;SDS011;3177;49.880;8.836;2022-11-18T13:04:31;5.13;;;4.33;;
6288;SDS011;3177;49.880;8.836;2022-11-18T13:06:58;5.70;;;3.93;;
6288;SDS011;3177;49.880;8.836;2022-11-18T13:09:26;5.47;;;3.63;;
6288;SDS011;3177;49.880;8.836;2022-11-18T13:11:57;4.40;;;3.77;;
6288;SDS011;3177;49.880;8.836;2022-11-18T13:14:26;3.90;;;3.43;;
6288;SDS011;3177;49.880;8.836;2022-11-18T13:17:24;3.93;;;3.30;;
6288;SDS011;3177;49.880;8.836;2022-11-18T13:20:22;4.80;;;3.37;;
6288;SDS011;3177;49.880;8.836;2022-11-18T13:22:54;3.40;;;3.10;;
6288;SDS011;3177;49.880;8.836;2022-11-18T13:25:50;3.90;;;3.03;;
6288;SDS011;3177;49.880;8.836;2022-11-18T13:28:22;3.13;;;2.93;;
6288;SDS011;3177;49.880;8.836;2022-11-18T13:30:52;5.27;;;3.13;;
6288;SDS011;3177;49.880;8.836;2022-11-18T13:33:21;3.67;;;3.37;;
6288;SDS011;3177;49.880;8.836;2022-11-18T13:35:48;4.30;;;3.30;;
6288;SDS011;3177;49.880;8.836;2022-11-18T13:38:20;3.63;;;3.30;;
6288;SDS011;3177;49.880;8.836;2022-11-18T13:40:48;4.83;;;3.20;;
6288;SDS011;3177;49.880;8.836;2022-11-18T13:43:33;3.93;;;3.10;;
6288;SDS011;3177;49.880;8.836;2022-11-18T13:46:02;4.60;;;3.17;;
6288;SDS011;3177;49.880;8.836;2022-11-18T13:48:31;3.83;;;3.27;;
6288;SDS011;3177;49.880;8.836;2022-11-18T13:50:59;3.90;;;3.50;;
6288;SDS011;3177;49.880;8.836;2022-11-18T13:53:27;4.43;;;3.20;;
6288;SDS011;3177;49.880;8.836;2022-11-18T13:55:56;4.63;;;3.43;;
6288;SDS011;3177;49.880;8.836;2022-11-18T13:58:30;4.07;;;3.13;;
6288;SDS011;3177;49.880;8.836;2022-11-18T14:01:00;5.07;;;3.30;;
6288;SDS011;3177;49.880;8.836;2022-11-18T14:03:29;3.67;;;2.60;;
6288;SDS011;3177;49.880;8.836;2022-11-18T14:05:58;3.80;;;2.80;;
6288;SDS011;3177;49.880;8.836;2022-11-18T14:08:26;3.30;;;2.80;;
6288;SDS011;3177;49.880;8.836;2022-11-18T14:10:54;4.30;;;2.80;;
6288;SDS011;3177;49.880;8.836;2022-11-18T14:13:23;4.53;;;3.00;;
6288;SDS011;3177;49.880;8.836;2022-11-18T14:15:51;4.23;;;3.50;;
6288;SDS011;3177;49.880;8.836;2022-11-18T14:18:22;3.70;;;2.93;;
6288;SDS011;3177;49.880;8.836;2022-11-18T14:20:52;5.43;;;2.93;;
6288;SDS011;3177;49.880;8.836;2022-11-18T14:23:26;3.13;;;2.83;;
6288;SDS011;3177;49.880;8.836;2022-11-18T14:25:57;2.80;;;2.50;;
6288;SDS011;3177;49.880;8.836;2022-11-18T14:28:26;3.23;;;2.40;;
6288;SDS011;3177;49.880;8.836;2022-11-18T14:30:55;4.03;;;2.40;;
6288;SDS011;3177;49.880;8.836;2022-11-18T14:33:24;7.27;;;2.50;;
6288;SDS011;3177;49.880;8.836;2022-11-18T14:35:53;6.60;;;2.70;;
6288;SDS011;3177;49.880;8.836;2022-11-18T14:38:21;2.77;;;2.53;;
6288;SDS011;3177;49.880;8.836;2022-11-18T14:40:54;3.90;;;2.70;;
6288;SDS011;3177;49.880;8.836;2022-11-18T14:43:22;6.13;;;3.07;;
6288;SDS011;3177;49.880;8.836;2022-11-18T14:45:50;6.50;;;2.90;;
6288;SDS011;3177;49.880;8.836;2022-11-18T14:48:19;3.43;;;3.10;;
6288;SDS011;3177;49.880;8.836;2022-11-18T14:50:48;5.87;;;3.10;;
6288;SDS011;3177;49.880;8.836;2022-11-18T14:53:16;5.60;;;2.90;;
6288;SDS011;3177;49.880;8.836;2022-11-18T14:55:43;5.67;;;3.03;;
6288;SDS011;3177;49.880;8.836;2022-11-18T14:58:11;3.57;;;2.60;;
6288;SDS011;3177;49.880;8.836;2022-11-18T15:00:39;4.53;;;2.40;;
6288;SDS011;3177;49.880;8.836;2022-11-18T15:03:06;3.77;;;2.47;;
6288;SDS011;3177;49.880;8.836;2022-11-18T15:05:33;2.20;;;2.00;;
6288;SDS011;3177;49.880;8.836;2022-11-18T15:08:02;2.80;;;2.37;;
6288;SDS011;3177;49.880;8.836;2022-11-18T15:10:29;3.97;;;3.20;;
6288;SDS011;3177;49.880;8.836;2022-11-18T15:12:56;5.40;;;2.73;;
6288;SDS011;3177;49.880;8.836;2022-11-18T15:15:23;5.33;;;2.70;;
6288;SDS011;3177;49.880;8.836;2022-11-18T15:17:50;3.00;;;2.60;;
6288;SDS011;3177;49.880;8.836;2022-11-18T15:20:18;4.50;;;2.60;;
6288;SDS011;3177;49.880;8.836;2022-11-18T15:22:46;4.40;;;2.70;;
6288;SDS011;3177;49.880;8.836;2022-11-18T15:25:15;7.00;;;2.93;;
6288;SDS011;3177;49.880;8.836;2022-11-18T15:27:42;5.57;;;3.33;;